createdAt,value
2023-03-03T00:06:30.534Z,102722.91
2023-03-03T00:16:51.934Z,102721.34
2023-03-03T00:27:34.585Z,102718.94
2023-03-03T00:37:57.485Z,102723.09
2023-03-03T00:48:37.098Z,102723.97
2023-03-03T00:58:58.484Z,102716.38
2023-03-03T01:09:19.831Z,102721.72
2023-03-03T01:19:41.176Z,102714.13
2023-03-03T01:30:04.099Z,102707.34
2023-03-03T01:40:29.361Z,102700.59
2023-03-03T01:50:56.957Z,102696.31
2023-03-03T02:01:23.016Z,102692.03
2023-03-03T02:11:44.707Z,102675.84
2023-03-03T02:22:06.176Z,102682.69
2023-03-03T02:32:27.580Z,102685.16
2023-03-03T02:42:52.440Z,102690.28
2023-03-03T02:53:13.812Z,102686.91
2023-03-03T03:03:35.182Z,102687.56
2023-03-03T03:13:56.534Z,102696.81
2023-03-03T03:24:18.234Z,102684.88
2023-03-03T03:34:39.594Z,102673.03
2023-03-03T03:45:00.976Z,102684.03
2023-03-03T03:55:22.758Z,102693.41
2023-03-03T04:05:44.335Z,102691.00
2023-03-03T04:16:05.852Z,102687.69
2023-03-03T04:26:27.244Z,102688.53
2023-03-03T04:36:48.644Z,102686.03
2023-03-03T04:47:10.032Z,102674.91
2023-03-03T04:57:31.911Z,102667.97
2023-03-03T05:07:53.466Z,102662.91
2023-03-03T05:18:14.803Z,102658.91
2023-03-03T05:28:36.163Z,102651.25
2023-03-03T05:38:57.588Z,102645.28
2023-03-03T05:49:18.941Z,102664.72
2023-03-03T05:59:40.292Z,102675.22
2023-03-03T06:10:01.727Z,102684.97
2023-03-03T06:20:23.243Z,102710.53
2023-03-03T06:30:44.651Z,102725.69
2023-03-03T06:41:07.431Z,102734.63
2023-03-03T06:51:31.815Z,102728.78
2023-03-03T07:01:53.649Z,102733.16
2023-03-03T07:12:19.446Z,102735.00
2023-03-03T07:22:40.834Z,102744.47
2023-03-03T07:33:02.194Z,102750.72
2023-03-03T07:43:29.737Z,102763.13
2023-03-03T07:53:52.293Z,102755.06
2023-03-03T08:04:16.593Z,102757.88
2023-03-03T08:14:38.628Z,102755.00
2023-03-03T08:24:59.973Z,102746.94
2023-03-03T08:35:21.350Z,102745.31
2023-03-03T08:45:44.714Z,102748.59
2023-03-03T08:56:06.884Z,102748.94
2023-03-03T09:06:28.228Z,102752.72
2023-03-03T09:16:53.877Z,102764.84
2023-03-03T09:27:29.449Z,102773.22
2023-03-03T09:37:51.049Z,102760.31
2023-03-03T09:48:21.969Z,102764.81
2023-03-03T09:59:02.221Z,102759.09
2023-03-03T10:09:32.976Z,102758.75
2023-03-03T10:20:00.470Z,102748.78
2023-03-03T10:30:51.215Z,102757.91
2023-03-03T10:41:41.948Z,102748.41
2023-03-03T10:52:08.584Z,102763.97
2023-03-03T11:02:38.722Z,102753.97
2023-03-03T11:13:21.716Z,102753.97
2023-03-03T11:23:50.034Z,102755.84
2023-03-03T11:34:37.077Z,102739.72
2023-03-03T11:45:06.054Z,102746.59
2023-03-03T11:55:33.289Z,102739.84
2023-03-03T12:06:04.177Z,102718.44
2023-03-03T12:16:54.971Z,102719.59
2023-03-03T12:27:39.205Z,102703.63
2023-03-03T12:38:09.717Z,102691.22
2023-03-03T12:48:31.095Z,102681.81
2023-03-03T12:58:52.500Z,102683.38
2023-03-03T13:09:27.464Z,102674.03
2023-03-03T13:19:54.739Z,102674.88
2023-03-03T13:30:27.625Z,102645.94
2023-03-03T13:40:51.884Z,102619.44
2023-03-03T13:51:19.306Z,102619.53
2023-03-03T14:01:49.944Z,102615.19
2023-03-03T14:12:26.991Z,102602.22
2023-03-03T14:22:53.382Z,102578.31
2023-03-03T14:33:14.708Z,102574.97
2023-03-03T14:43:37.099Z,102556.88
2023-03-03T14:53:58.561Z,102550.81
2023-03-03T15:04:24.373Z,102551.78
2023-03-03T15:14:47.438Z,102545.81
2023-03-03T15:25:14.838Z,102534.53
2023-03-03T15:35:42.092Z,102536.25
2023-03-03T15:46:14.333Z,102527.63
2023-03-03T15:56:35.678Z,102518.22
2023-03-03T16:07:03.253Z,102520.72
2023-03-03T16:17:35.038Z,102524.94
2023-03-03T16:27:56.397Z,102519.66
2023-03-03T16:38:24.344Z,102522.16
2023-03-03T16:49:06.153Z,102528.91
2023-03-03T16:59:30.621Z,102540.03
2023-03-03T17:10:00.298Z,102537.44
2023-03-03T17:20:33.956Z,102538.19
2023-03-03T17:31:04.976Z,102548.50
2023-03-03T17:41:49.595Z,102546.69
2023-03-03T17:52:35.864Z,102562.91
2023-03-03T18:02:57.254Z,102565.50
2023-03-03T18:13:29.952Z,102553.44
2023-03-03T18:23:51.408Z,102550.00
2023-03-03T18:34:18.777Z,102552.53
2023-03-03T18:44:40.238Z,102545.69
2023-03-03T18:55:01.699Z,102552.53
2023-03-03T19:05:46.414Z,102551.66
2023-03-03T19:16:28.801Z,102561.16
2023-03-03T19:26:58.635Z,102558.53
2023-03-03T19:37:23.046Z,102555.13
2023-03-03T19:47:54.509Z,102564.50
2023-03-03T19:58:31.802Z,102558.53
2023-03-03T20:08:59.520Z,102556.00
2023-03-03T20:19:20.891Z,102565.38
2023-03-03T20:29:48.559Z,102578.25
2023-03-03T20:40:13.117Z,102577.34
2023-03-03T20:50:51.025Z,102582.50
2023-03-03T21:01:17.623Z,102585.13
2023-03-03T21:11:38.984Z,102586.03
2023-03-03T21:22:02.280Z,102580.84
2023-03-03T21:32:39.366Z,102576.56
2023-03-03T21:43:01.133Z,102578.22
2023-03-03T21:53:23.753Z,102567.97
2023-03-03T22:03:45.247Z,102564.53
2023-03-03T22:14:06.880Z,102557.66
2023-03-03T22:24:28.298Z,102560.16
2023-03-03T22:34:49.654Z,102555.00
2023-03-03T22:45:11.259Z,102551.63
2023-03-03T22:55:36.854Z,102540.47
2023-03-03T23:06:00.026Z,102537.84
2023-03-03T23:16:21.451Z,102543.00
2023-03-03T23:26:42.968Z,102544.78
2023-03-03T23:37:04.390Z,102529.34
2023-03-03T23:47:26.446Z,102525.91
2023-03-03T23:57:47.814Z,102524.19
